sensor_id;sensor_type;location;lat;lon;timestamp;temperature;humidity
6740;DHT22;3407;49.882;10.920;2022-08-01T00:03:28;18.90;1.00
6740;DHT22;3407;49.882;10.920;2022-08-01T00:08:24;18.90;1.00
6740;DHT22;3407;49.882;10.920;2022-08-01T00:13:20;18.90;1.00
6740;DHT22;3407;49.882;10.920;2022-08-01T00:18:15;18.80;1.00
6740;DHT22;3407;49.882;10.920;2022-08-01T00:23:11;18.80;1.00
6740;DHT22;3407;49.882;10.920;2022-08-01T00:28:06;18.80;1.00
6740;DHT22;3407;49.882;10.920;2022-08-01T00:33:03;18.90;1.00
6740;DHT22;3407;49.882;10.920;2022-08-01T00:37:59;19.10;1.00
6740;DHT22;3407;49.882;10.920;2022-08-01T00:42:54;19.20;1.00
6740;DHT22;3407;49.882;10.920;2022-08-01T00:47:50;19.20;1.00
6740;DHT22;3407;49.882;10.920;2022-08-01T00:52:45;19.10;1.00
6740;DHT22;3407;49.882;10.920;2022-08-01T00:57:41;18.90;1.00
6740;DHT22;3407;49.882;10.920;2022-08-01T01:02:37;18.70;1.00
6740;DHT22;3407;49.882;10.920;2022-08-01T01:07:56;18.60;1.00
6740;DHT22;3407;49.882;10.920;2022-08-01T01:12:59;18.50;1.00
6740;DHT22;3407;49.882;10.920;2022-08-01T01:18:02;18.50;1.00
6740;DHT22;3407;49.882;10.920;2022-08-01T01:23:34;18.40;1.00
6740;DHT22;3407;49.882;10.920;2022-08-01T01:28:40;18.30;1.00
6740;DHT22;3407;49.882;10.920;2022-08-01T01:33:40;18.40;1.00
6740;DHT22;3407;49.882;10.920;2022-08-01T01:38:43;18.40;1.00
6740;DHT22;3407;49.882;10.920;2022-08-01T01:43:39;18.40;1.00
6740;DHT22;3407;49.882;10.920;2022-08-01T01:48:36;18.30;1.00
6740;DHT22;3407;49.882;10.920;2022-08-01T01:53:34;18.30;1.00
6740;DHT22;3407;49.882;10.920;2022-08-01T01:58:32;18.40;1.00
6740;DHT22;3407;49.882;10.920;2022-08-01T02:03:30;18.30;1.00
6740;DHT22;3407;49.882;10.920;2022-08-01T02:08:26;18.30;1.00
6740;DHT22;3407;49.882;10.920;2022-08-01T02:13:22;18.20;1.00
6740;DHT22;3407;49.882;10.920;2022-08-01T02:18:18;18.20;1.00
6740;DHT22;3407;49.882;10.920;2022-08-01T02:23:13;18.10;1.00
6740;DHT22;3407;49.882;10.920;2022-08-01T02:28:13;18.10;1.00
6740;DHT22;3407;49.882;10.920;2022-08-01T02:33:23;18.10;1.00
6740;DHT22;3407;49.882;10.920;2022-08-01T02:38:23;17.90;1.00
6740;DHT22;3407;49.882;10.920;2022-08-01T02:43:21;17.90;1.00
6740;DHT22;3407;49.882;10.920;2022-08-01T02:48:19;17.80;1.00
6740;DHT22;3407;49.882;10.920;2022-08-01T02:53:19;17.70;1.00
6740;DHT22;3407;49.882;10.920;2022-08-01T02:58:17;17.70;1.00
6740;DHT22;3407;49.882;10.920;2022-08-01T03:03:14;17.70;1.00
6740;DHT22;3407;49.882;10.920;2022-08-01T03:08:11;17.60;1.00
6740;DHT22;3407;49.882;10.920;2022-08-01T03:13:09;17.40;1.00
6740;DHT22;3407;49.882;10.920;2022-08-01T03:18:07;17.30;1.00
6740;DHT22;3407;49.882;10.920;2022-08-01T03:23:09;17.20;1.00
6740;DHT22;3407;49.882;10.920;2022-08-01T03:28:07;17.10;1.00
6740;DHT22;3407;49.882;10.920;2022-08-01T03:33:03;17.20;1.00
6740;DHT22;3407;49.882;10.920;2022-08-01T03:38:00;17.20;1.00
6740;DHT22;3407;49.882;10.920;2022-08-01T03:43:05;17.10;1.00
6740;DHT22;3407;49.882;10.920;2022-08-01T03:48:08;17.00;1.00
6740;DHT22;3407;49.882;10.920;2022-08-01T03:53:05;16.90;1.00
6740;DHT22;3407;49.882;10.920;2022-08-01T03:58:03;17.00;1.00
6740;DHT22;3407;49.882;10.920;2022-08-01T04:02:59;16.80;1.00
6740;DHT22;3407;49.882;10.920;2022-08-01T04:07:55;16.90;1.00
6740;DHT22;3407;49.882;10.920;2022-08-01T04:12:51;17.00;1.00
6740;DHT22;3407;49.882;10.920;2022-08-01T04:17:47;17.20;1.00
6740;DHT22;3407;49.882;10.920;2022-08-01T04:22:43;17.40;1.00
6740;DHT22;3407;49.882;10.920;2022-08-01T04:27:41;17.30;1.00
6740;DHT22;3407;49.882;10.920;2022-08-01T04:32:39;17.20;1.00
6740;DHT22;3407;49.882;10.920;2022-08-01T04:37:36;17.20;1.00
6740;DHT22;3407;49.882;10.920;2022-08-01T04:42:33;17.30;1.00
6740;DHT22;3407;49.882;10.920;2022-08-01T04:47:29;17.50;1.00
6740;DHT22;3407;49.882;10.920;2022-08-01T04:52:33;17.60;1.00
6740;DHT22;3407;49.882;10.920;2022-08-01T04:57:28;17.70;1.00
6740;DHT22;3407;49.882;10.920;2022-08-01T05:02:24;17.80;1.00
6740;DHT22;3407;49.882;10.920;2022-08-01T05:07:22;17.90;1.00
6740;DHT22;3407;49.882;10.920;2022-08-01T05:12:18;17.90;1.00
6740;DHT22;3407;49.882;10.920;2022-08-01T05:17:13;18.10;1.00
6740;DHT22;3407;49.882;10.920;2022-08-01T05:22:10;18.10;1.00
6740;DHT22;3407;49.882;10.920;2022-08-01T05:27:06;18.30;1.00
6740;DHT22;3407;49.882;10.920;2022-08-01T05:32:03;18.40;1.00
6740;DHT22;3407;49.882;10.920;2022-08-01T05:36:59;18.70;1.00
6740;DHT22;3407;49.882;10.920;2022-08-01T05:41:54;18.80;1.00
6740;DHT22;3407;49.882;10.920;2022-08-01T05:46:50;18.90;1.00
6740;DHT22;3407;49.882;10.920;2022-08-01T05:51:46;19.00;1.00
6740;DHT22;3407;49.882;10.920;2022-08-01T05:56:41;19.20;1.00
6740;DHT22;3407;49.882;10.920;2022-08-01T06:01:37;19.30;1.00
6740;DHT22;3407;49.882;10.920;2022-08-01T06:06:32;19.40;1.00
6740;DHT22;3407;49.882;10.920;2022-08-01T06:11:28;19.30;1.00
6740;DHT22;3407;49.882;10.920;2022-08-01T06:16:23;19.40;1.00
6740;DHT22;3407;49.882;10.920;2022-08-01T06:21:19;19.60;1.00
6740;DHT22;3407;49.882;10.920;2022-08-01T06:26:18;19.70;1.00
6740;DHT22;3407;49.882;10.920;2022-08-01T06:31:13;19.90;1.00
6740;DHT22;3407;49.882;10.920;2022-08-01T06:36:10;20.00;1.00
6740;DHT22;3407;49.882;10.920;2022-08-01T06:41:06;20.00;1.00
6740;DHT22;3407;49.882;10.920;2022-08-01T06:46:02;20.20;1.00
6740;DHT22;3407;49.882;10.920;2022-08-01T06:50:57;20.20;1.00
6740;DHT22;3407;49.882;10.920;2022-08-01T06:56:08;20.40;99.90
6740;DHT22;3407;49.882;10.920;2022-08-01T07:01:04;20.80;16.10
6740;DHT22;3407;49.882;10.920;2022-08-01T07:06:01;21.10;1.00
6740;DHT22;3407;49.882;10.920;2022-08-01T07:10:56;21.30;99.90
6740;DHT22;3407;49.882;10.920;2022-08-01T07:15:54;22.00;1.00
6740;DHT22;3407;49.882;10.920;2022-08-01T07:20:50;24.40;99.90
6740;DHT22;3407;49.882;10.920;2022-08-01T07:25:45;27.20;99.90
6740;DHT22;3407;49.882;10.920;2022-08-01T07:30:41;31.40;99.90
6740;DHT22;3407;49.882;10.920;2022-08-01T07:35:37;30.40;99.90
6740;DHT22;3407;49.882;10.920;2022-08-01T07:40:35;28.80;99.90
6740;DHT22;3407;49.882;10.920;2022-08-01T07:45:31;27.70;99.90
6740;DHT22;3407;49.882;10.920;2022-08-01T07:50:26;27.10;99.90
6740;DHT22;3407;49.882;10.920;2022-08-01T07:55:22;27.30;99.90
6740;DHT22;3407;49.882;10.920;2022-08-01T08:00:18;27.70;99.90
6740;DHT22;3407;49.882;10.920;2022-08-01T08:05:13;27.00;99.90
6740;DHT22;3407;49.882;10.920;2022-08-01T08:10:09;26.70;99.90
6740;DHT22;3407;49.882;10.920;2022-08-01T08:15:05;26.60;99.90
6740;DHT22;3407;49.882;10.920;2022-08-01T08:20:02;27.00;99.90
6740;DHT22;3407;49.882;10.920;2022-08-01T08:24:58;27.90;99.90
6740;DHT22;3407;49.882;10.920;2022-08-01T08:29:53;28.50;99.90
6740;DHT22;3407;49.882;10.920;2022-08-01T08:34:49;28.40;99.90
6740;DHT22;3407;49.882;10.920;2022-08-01T08:39:45;28.00;99.90
6740;DHT22;3407;49.882;10.920;2022-08-01T08:44:41;27.80;99.90
6740;DHT22;3407;49.882;10.920;2022-08-01T08:49:38;27.30;99.90
6740;DHT22;3407;49.882;10.920;2022-08-01T08:54:36;27.10;99.90
6740;DHT22;3407;49.882;10.920;2022-08-01T08:59:32;27.40;99.90
6740;DHT22;3407;49.882;10.920;2022-08-01T09:04:28;28.00;99.90
6740;DHT22;3407;49.882;10.920;2022-08-01T09:09:24;28.60;99.90
6740;DHT22;3407;49.882;10.920;2022-08-01T09:14:19;30.90;99.90
6740;DHT22;3407;49.882;10.920;2022-08-01T09:19:44;31.80;97.00
6740;DHT22;3407;49.882;10.920;2022-08-01T09:24:41;30.80;96.70
6740;DHT22;3407;49.882;10.920;2022-08-01T09:29:37;29.60;99.90
6740;DHT22;3407;49.882;10.920;2022-08-01T09:34:32;29.50;99.90
6740;DHT22;3407;49.882;10.920;2022-08-01T09:39:33;30.70;98.80
6740;DHT22;3407;49.882;10.920;2022-08-01T09:44:44;30.50;93.20
6740;DHT22;3407;49.882;10.920;2022-08-01T09:49:40;29.00;99.90
6740;DHT22;3407;49.882;10.920;2022-08-01T09:54:37;27.60;99.90
6740;DHT22;3407;49.882;10.920;2022-08-01T09:59:40;26.30;99.90
6740;DHT22;3407;49.882;10.920;2022-08-01T10:04:46;25.20;1.00
6740;DHT22;3407;49.882;10.920;2022-08-01T10:09:43;24.70;99.90
6740;DHT22;3407;49.882;10.920;2022-08-01T10:14:40;24.80;99.90
6740;DHT22;3407;49.882;10.920;2022-08-01T10:19:36;25.90;1.00
6740;DHT22;3407;49.882;10.920;2022-08-01T10:24:36;26.50;99.90
6740;DHT22;3407;49.882;10.920;2022-08-01T10:29:50;26.90;99.90
6740;DHT22;3407;49.882;10.920;2022-08-01T10:34:49;27.20;99.90
6740;DHT22;3407;49.882;10.920;2022-08-01T10:39:44;26.90;99.90
6740;DHT22;3407;49.882;10.920;2022-08-01T10:44:40;26.50;99.90
6740;DHT22;3407;49.882;10.920;2022-08-01T10:49:53;26.30;99.90
6740;DHT22;3407;49.882;10.920;2022-08-01T10:55:05;26.50;99.90
6740;DHT22;3407;49.882;10.920;2022-08-01T11:00:01;27.30;99.90
6740;DHT22;3407;49.882;10.920;2022-08-01T11:05:07;29.20;99.90
6740;DHT22;3407;49.882;10.920;2022-08-01T11:10:14;29.30;99.90
6740;DHT22;3407;49.882;10.920;2022-08-01T11:20:17;28.40;99.90
6740;DHT22;3407;49.882;10.920;2022-08-01T11:25:13;28.00;99.90
6740;DHT22;3407;49.882;10.920;2022-08-01T11:35:04;27.60;99.90
6740;DHT22;3407;49.882;10.920;2022-08-01T11:40:20;28.60;99.90
6740;DHT22;3407;49.882;10.920;2022-08-01T11:45:16;29.20;99.90
6740;DHT22;3407;49.882;10.920;2022-08-01T11:50:30;30.60;99.90
6740;DHT22;3407;49.882;10.920;2022-08-01T11:55:27;33.30;79.30
6740;DHT22;3407;49.882;10.920;2022-08-01T12:00:23;35.40;45.30
6740;DHT22;3407;49.882;10.920;2022-08-01T12:05:19;33.90;34.50
6740;DHT22;3407;49.882;10.920;2022-08-01T12:10:17;33.10;39.30
6740;DHT22;3407;49.882;10.920;2022-08-01T12:15:14;31.90;42.50
6740;DHT22;3407;49.882;10.920;2022-08-01T12:20:12;30.00;51.80
6740;DHT22;3407;49.882;10.920;2022-08-01T12:25:15;28.60;62.80
6740;DHT22;3407;49.882;10.920;2022-08-01T12:30:17;27.70;80.10
6740;DHT22;3407;49.882;10.920;2022-08-01T12:35:19;27.70;94.70
6740;DHT22;3407;49.882;10.920;2022-08-01T12:40:22;28.50;91.40
6740;DHT22;3407;49.882;10.920;2022-08-01T12:45:21;28.10;91.00
6740;DHT22;3407;49.882;10.920;2022-08-01T12:50:22;27.50;93.30
6740;DHT22;3407;49.882;10.920;2022-08-01T12:55:20;27.30;96.20
6740;DHT22;3407;49.882;10.920;2022-08-01T13:00:24;27.00;99.90
6740;DHT22;3407;49.882;10.920;2022-08-01T13:05:24;26.60;99.90
6740;DHT22;3407;49.882;10.920;2022-08-01T13:10:29;26.20;99.90
6740;DHT22;3407;49.882;10.920;2022-08-01T13:15:30;26.00;99.90
6740;DHT22;3407;49.882;10.920;2022-08-01T13:20:36;25.70;99.90
6740;DHT22;3407;49.882;10.920;2022-08-01T13:25:32;26.50;99.90
6740;DHT22;3407;49.882;10.920;2022-08-01T13:30:27;26.50;99.90
6740;DHT22;3407;49.882;10.920;2022-08-01T13:35:23;26.60;99.90
6740;DHT22;3407;49.882;10.920;2022-08-01T13:40:26;27.20;99.90
6740;DHT22;3407;49.882;10.920;2022-08-01T13:45:23;28.00;99.90
6740;DHT22;3407;49.882;10.920;2022-08-01T13:50:18;28.10;99.90
6740;DHT22;3407;49.882;10.920;2022-08-01T13:55:14;28.00;99.90
6740;DHT22;3407;49.882;10.920;2022-08-01T14:00:10;28.00;99.90
6740;DHT22;3407;49.882;10.920;2022-08-01T14:05:06;27.80;99.90
6740;DHT22;3407;49.882;10.920;2022-08-01T14:10:03;27.50;99.90
6740;DHT22;3407;49.882;10.920;2022-08-01T14:14:58;27.80;99.90
6740;DHT22;3407;49.882;10.920;2022-08-01T14:19:54;28.20;99.90
6740;DHT22;3407;49.882;10.920;2022-08-01T14:24:51;28.40;99.80
6740;DHT22;3407;49.882;10.920;2022-08-01T14:29:47;28.30;97.20
6740;DHT22;3407;49.882;10.920;2022-08-01T14:34:42;27.90;96.60
6740;DHT22;3407;49.882;10.920;2022-08-01T14:39:38;27.70;99.50
6740;DHT22;3407;49.882;10.920;2022-08-01T14:44:33;27.50;99.90
6740;DHT22;3407;49.882;10.920;2022-08-01T14:49:29;27.50;99.90
6740;DHT22;3407;49.882;10.920;2022-08-01T14:54:25;27.70;99.90
6740;DHT22;3407;49.882;10.920;2022-08-01T14:59:20;27.70;98.80
6740;DHT22;3407;49.882;10.920;2022-08-01T15:04:16;27.30;99.90
6740;DHT22;3407;49.882;10.920;2022-08-01T15:09:12;27.20;99.90
6740;DHT22;3407;49.882;10.920;2022-08-01T15:14:08;27.10;99.90
6740;DHT22;3407;49.882;10.920;2022-08-01T15:19:22;27.00;99.90
6740;DHT22;3407;49.882;10.920;2022-08-01T15:24:17;27.10;99.90
6740;DHT22;3407;49.882;10.920;2022-08-01T15:29:13;27.30;96.50
6740;DHT22;3407;49.882;10.920;2022-08-01T15:34:08;27.40;98.70
6740;DHT22;3407;49.882;10.920;2022-08-01T15:39:04;27.50;98.60
6740;DHT22;3407;49.882;10.920;2022-08-01T15:44:00;27.40;99.50
6740;DHT22;3407;49.882;10.920;2022-08-01T15:48:55;27.20;99.90
6740;DHT22;3407;49.882;10.920;2022-08-01T15:53:51;26.80;99.80
6740;DHT22;3407;49.882;10.920;2022-08-01T15:58:47;26.70;99.90
6740;DHT22;3407;49.882;10.920;2022-08-01T16:03:42;26.60;99.90
6740;DHT22;3407;49.882;10.920;2022-08-01T16:08:38;26.40;99.90
6740;DHT22;3407;49.882;10.920;2022-08-01T16:13:33;26.20;99.90
6740;DHT22;3407;49.882;10.920;2022-08-01T16:18:30;26.20;99.90
6740;DHT22;3407;49.882;10.920;2022-08-01T16:23:26;26.10;99.90
6740;DHT22;3407;49.882;10.920;2022-08-01T16:28:24;26.20;99.90
6740;DHT22;3407;49.882;10.920;2022-08-01T16:33:20;26.20;99.90
6740;DHT22;3407;49.882;10.920;2022-08-01T16:38:15;26.20;99.90
6740;DHT22;3407;49.882;10.920;2022-08-01T16:43:14;26.00;99.90
6740;DHT22;3407;49.882;10.920;2022-08-01T16:48:11;25.90;99.90
6740;DHT22;3407;49.882;10.920;2022-08-01T16:53:09;25.90;99.90
6740;DHT22;3407;49.882;10.920;2022-08-01T16:58:05;25.90;99.90
6740;DHT22;3407;49.882;10.920;2022-08-01T17:03:01;25.90;99.90
6740;DHT22;3407;49.882;10.920;2022-08-01T17:07:57;25.80;99.90
6740;DHT22;3407;49.882;10.920;2022-08-01T17:12:52;25.80;99.80
6740;DHT22;3407;49.882;10.920;2022-08-01T17:17:48;25.80;99.90
6740;DHT22;3407;49.882;10.920;2022-08-01T17:22:46;25.70;99.90
6740;DHT22;3407;49.882;10.920;2022-08-01T17:27:41;25.60;99.90
6740;DHT22;3407;49.882;10.920;2022-08-01T17:32:37;25.30;99.90
6740;DHT22;3407;49.882;10.920;2022-08-01T17:37:36;25.20;99.90
6740;DHT22;3407;49.882;10.920;2022-08-01T17:42:31;25.10;99.90
6740;DHT22;3407;49.882;10.920;2022-08-01T17:47:27;25.10;99.90
6740;DHT22;3407;49.882;10.920;2022-08-01T17:52:23;25.00;99.90
6740;DHT22;3407;49.882;10.920;2022-08-01T17:57:19;25.00;99.90
6740;DHT22;3407;49.882;10.920;2022-08-01T18:02:15;25.00;99.90
6740;DHT22;3407;49.882;10.920;2022-08-01T18:07:11;25.00;99.90
6740;DHT22;3407;49.882;10.920;2022-08-01T18:12:07;24.90;99.90
6740;DHT22;3407;49.882;10.920;2022-08-01T18:17:03;24.80;99.90
6740;DHT22;3407;49.882;10.920;2022-08-01T18:21:58;24.70;99.90
6740;DHT22;3407;49.882;10.920;2022-08-01T18:26:54;24.60;99.90
6740;DHT22;3407;49.882;10.920;2022-08-01T18:31:50;24.40;99.90
6740;DHT22;3407;49.882;10.920;2022-08-01T18:36:46;24.30;99.90
6740;DHT22;3407;49.882;10.920;2022-08-01T18:41:41;24.00;99.90
6740;DHT22;3407;49.882;10.920;2022-08-01T18:46:38;23.90;99.90
6740;DHT22;3407;49.882;10.920;2022-08-01T18:51:34;23.70;99.90
6740;DHT22;3407;49.882;10.920;2022-08-01T18:56:30;23.60;99.90
6740;DHT22;3407;49.882;10.920;2022-08-01T19:01:26;23.40;99.90
6740;DHT22;3407;49.882;10.920;2022-08-01T19:06:21;23.30;99.90
6740;DHT22;3407;49.882;10.920;2022-08-01T19:11:18;23.10;1.00
6740;DHT22;3407;49.882;10.920;2022-08-01T19:16:14;23.00;99.90
6740;DHT22;3407;49.882;10.920;2022-08-01T19:21:11;22.70;99.90
6740;DHT22;3407;49.882;10.920;2022-08-01T19:26:07;22.50;1.00
6740;DHT22;3407;49.882;10.920;2022-08-01T19:31:07;22.40;28.60
6740;DHT22;3407;49.882;10.920;2022-08-01T19:36:04;22.20;1.00
6740;DHT22;3407;49.882;10.920;2022-08-01T19:41:02;22.10;99.90
6740;DHT22;3407;49.882;10.920;2022-08-01T19:45:58;22.00;1.00
6740;DHT22;3407;49.882;10.920;2022-08-01T19:50:54;21.90;1.00
6740;DHT22;3407;49.882;10.920;2022-08-01T19:55:50;21.80;1.00
6740;DHT22;3407;49.882;10.920;2022-08-01T20:00:47;21.70;99.90
6740;DHT22;3407;49.882;10.920;2022-08-01T20:05:44;21.70;1.00
6740;DHT22;3407;49.882;10.920;2022-08-01T20:10:40;21.60;1.00
6740;DHT22;3407;49.882;10.920;2022-08-01T20:15:37;21.40;1.00
6740;DHT22;3407;49.882;10.920;2022-08-01T20:20:34;21.30;1.00
6740;DHT22;3407;49.882;10.920;2022-08-01T20:25:31;21.10;99.90
6740;DHT22;3407;49.882;10.920;2022-08-01T20:30:28;21.00;1.00
6740;DHT22;3407;49.882;10.920;2022-08-01T20:35:24;21.00;99.90
6740;DHT22;3407;49.882;10.920;2022-08-01T20:40:22;21.00;1.00
6740;DHT22;3407;49.882;10.920;2022-08-01T20:45:20;20.90;1.00
6740;DHT22;3407;49.882;10.920;2022-08-01T20:50:19;20.80;1.00
6740;DHT22;3407;49.882;10.920;2022-08-01T20:55:56;20.70;99.90
6740;DHT22;3407;49.882;10.920;2022-08-01T21:00:55;20.60;1.00
6740;DHT22;3407;49.882;10.920;2022-08-01T21:05:59;20.50;17.50
6740;DHT22;3407;49.882;10.920;2022-08-01T21:11:00;20.40;99.90
6740;DHT22;3407;49.882;10.920;2022-08-01T21:15:58;20.40;99.90
6740;DHT22;3407;49.882;10.920;2022-08-01T21:20:58;20.20;99.90
6740;DHT22;3407;49.882;10.920;2022-08-01T21:25:56;20.00;99.90
6740;DHT22;3407;49.882;10.920;2022-08-01T21:30:57;19.90;99.90
6740;DHT22;3407;49.882;10.920;2022-08-01T21:35:55;19.80;99.90
6740;DHT22;3407;49.882;10.920;2022-08-01T21:40:52;19.70;1.00
6740;DHT22;3407;49.882;10.920;2022-08-01T21:45:49;19.70;1.00
6740;DHT22;3407;49.882;10.920;2022-08-01T21:51:00;19.70;1.00
6740;DHT22;3407;49.882;10.920;2022-08-01T21:56:07;19.70;1.00
6740;DHT22;3407;49.882;10.920;2022-08-01T22:06:33;19.60;1.00
6740;DHT22;3407;49.882;10.920;2022-08-01T22:11:30;19.60;1.00
6740;DHT22;3407;49.882;10.920;2022-08-01T22:16:30;19.50;1.00
6740;DHT22;3407;49.882;10.920;2022-08-01T22:21:26;19.30;1.00
6740;DHT22;3407;49.882;10.920;2022-08-01T22:26:21;19.20;1.00
6740;DHT22;3407;49.882;10.920;2022-08-01T22:31:17;19.00;1.00
6740;DHT22;3407;49.882;10.920;2022-08-01T22:36:13;19.00;1.00
6740;DHT22;3407;49.882;10.920;2022-08-01T22:41:14;19.00;1.00
6740;DHT22;3407;49.882;10.920;2022-08-01T22:56:21;18.90;1.00
6740;DHT22;3407;49.882;10.920;2022-08-01T23:01:20;18.90;1.00
6740;DHT22;3407;49.882;10.920;2022-08-01T23:06:40;18.90;1.00
6740;DHT22;3407;49.882;10.920;2022-08-01T23:11:37;19.00;1.00
6740;DHT22;3407;49.882;10.920;2022-08-01T23:16:34;19.00;1.00
6740;DHT22;3407;49.882;10.920;2022-08-01T23:21:30;18.90;1.00
6740;DHT22;3407;49.882;10.920;2022-08-01T23:26:27;18.90;1.00
6740;DHT22;3407;49.882;10.920;2022-08-01T23:31:24;18.90;1.00
6740;DHT22;3407;49.882;10.920;2022-08-01T23:36:20;18.80;1.00
6740;DHT22;3407;49.882;10.920;2022-08-01T23:41:16;18.80;1.00
6740;DHT22;3407;49.882;10.920;2022-08-01T23:46:13;18.70;1.00
6740;DHT22;3407;49.882;10.920;2022-08-01T23:51:08;18.60;1.00
6740;DHT22;3407;49.882;10.920;2022-08-01T23:56:04;18.50;1.00
